createdAt,value
2022-08-02T00:00:44.117Z,60.53
2022-08-02T00:02:47.418Z,60.72
2022-08-02T00:04:49.397Z,60.85
2022-08-02T00:06:51.383Z,60.94
2022-08-02T00:08:53.969Z,60.86
2022-08-02T00:10:55.861Z,61.15
2022-08-02T00:12:58.017Z,61.27
2022-08-02T00:14:59.770Z,61.40
2022-08-02T00:17:01.603Z,60.85
2022-08-02T00:19:03.945Z,61.29
2022-08-02T00:21:05.993Z,61.61
2022-08-02T00:23:07.761Z,60.79
2022-08-02T00:25:09.763Z,60.64
2022-08-02T00:27:11.555Z,61.56
2022-08-02T00:29:13.773Z,60.92
2022-08-02T00:31:15.683Z,60.62
2022-08-02T00:33:17.636Z,60.26
2022-08-02T00:35:40.698Z,60.32
2022-08-02T00:37:42.848Z,60.40
2022-08-02T00:39:44.712Z,59.85
2022-08-02T00:41:52.023Z,60.40
2022-08-02T00:43:55.220Z,60.00
2022-08-02T00:46:02.255Z,59.89
2022-08-02T00:48:07.773Z,60.71
2022-08-02T00:50:10.087Z,61.13
2022-08-02T00:52:12.198Z,60.49
2022-08-02T00:54:14.932Z,60.80
2022-08-02T00:56:16.745Z,60.71
2022-08-02T00:58:18.600Z,60.67
2022-08-02T01:00:20.965Z,60.40
2022-08-02T01:02:22.860Z,60.49
2022-08-02T01:04:30.749Z,60.51
2022-08-02T01:06:34.392Z,60.49
2022-08-02T01:08:38.818Z,60.89
2022-08-02T01:10:41.162Z,60.66
2022-08-02T01:12:43.175Z,60.63
2022-08-02T01:14:48.210Z,60.33
2022-08-02T01:16:54.794Z,60.64
2022-08-02T01:19:02.061Z,60.44
2022-08-02T01:21:22.471Z,61.00
2022-08-02T01:23:45.736Z,61.86
2022-08-02T01:25:59.252Z,61.32
2022-08-02T01:28:22.207Z,61.73
2022-08-02T01:30:24.486Z,60.50
2022-08-02T01:32:34.102Z,60.90
2022-08-02T01:34:41.643Z,60.61
2022-08-02T01:37:09.218Z,60.45
2022-08-02T01:39:27.361Z,60.31
2022-08-02T01:41:35.693Z,60.82
2022-08-02T01:43:40.340Z,60.47
2022-08-02T01:45:43.719Z,60.16
2022-08-02T01:47:48.182Z,60.58
2022-08-02T01:49:53.132Z,60.19
2022-08-02T01:52:14.997Z,60.14
2022-08-02T01:54:22.269Z,60.07
2022-08-02T01:56:24.639Z,59.89
2022-08-02T01:58:30.103Z,60.47
2022-08-02T02:00:35.441Z,60.73
2022-08-02T02:02:41.738Z,60.67
2022-08-02T02:04:46.502Z,60.24
2022-08-02T02:06:50.519Z,60.87
2022-08-02T02:08:53.236Z,60.41
2022-08-02T02:10:57.119Z,60.44
2022-08-02T02:13:04.321Z,60.19
2022-08-02T02:15:10.473Z,60.25
2022-08-02T02:17:52.770Z,60.45
2022-08-02T02:19:37.527Z,61.08
2022-08-02T02:21:39.413Z,60.78
2022-08-02T02:23:43.732Z,60.50
2022-08-02T02:25:47.393Z,60.69
2022-08-02T02:28:07.378Z,61.42
2022-08-02T02:30:10.095Z,60.68
2022-08-02T02:32:15.049Z,60.65
2022-08-02T02:34:32.384Z,60.48
2022-08-02T02:36:36.480Z,60.32
2022-08-02T02:38:39.989Z,60.84
2022-08-02T02:40:42.348Z,60.42
2022-08-02T02:42:49.352Z,61.10
2022-08-02T02:44:52.630Z,61.27
2022-08-02T02:46:55.794Z,61.46
2022-08-02T02:48:58.912Z,61.50
2022-08-02T02:51:03.846Z,61.31
2022-08-02T02:53:07.150Z,60.98
2022-08-02T02:55:10.427Z,60.95
2022-08-02T02:57:12.846Z,60.86
2022-08-02T02:59:15.567Z,61.09
2022-08-02T03:01:56.212Z,60.84
2022-08-02T03:03:55.216Z,61.03
2022-08-02T03:05:57.170Z,61.32
2022-08-02T03:07:59.161Z,61.08
2022-08-02T03:10:02.699Z,61.27
2022-08-02T03:12:05.622Z,61.78
2022-08-02T03:14:11.494Z,62.23
2022-08-02T03:16:13.502Z,61.97
2022-08-02T03:18:35.445Z,62.21
2022-08-02T03:20:37.365Z,61.19
2022-08-02T03:22:40.755Z,61.64
2022-08-02T03:24:42.580Z,61.14
2022-08-02T03:26:44.471Z,61.51
2022-08-02T03:28:46.304Z,61.15
2022-08-02T03:30:48.142Z,61.09
2022-08-02T03:32:50.470Z,61.57
2022-08-02T03:34:52.569Z,62.67
2022-08-02T03:36:56.818Z,62.21
2022-08-02T03:39:00.411Z,62.49
2022-08-02T03:41:03.980Z,62.36
2022-08-02T03:43:06.731Z,62.71
2022-08-02T03:45:11.673Z,62.76
2022-08-02T03:47:14.292Z,62.24
2022-08-02T03:49:18.418Z,62.64
2022-08-02T03:51:20.957Z,63.13
2022-08-02T03:53:22.971Z,63.32
2022-08-02T03:55:25.409Z,63.35
2022-08-02T03:57:27.200Z,63.05
2022-08-02T03:59:29.005Z,63.69
2022-08-02T04:01:34.408Z,63.55
2022-08-02T04:03:36.364Z,63.81
2022-08-02T04:05:38.264Z,64.47
2022-08-02T04:08:33.185Z,63.97
2022-08-02T04:10:21.907Z,64.17
2022-08-02T04:12:23.682Z,64.36
2022-08-02T04:14:26.664Z,64.66
2022-08-02T04:16:34.833Z,65.35
2022-08-02T04:18:42.606Z,65.76
2022-08-02T04:20:48.878Z,65.20
2022-08-02T04:22:57.707Z,65.52
2022-08-02T04:25:03.827Z,65.59
2022-08-02T04:27:50.107Z,65.26
2022-08-02T04:29:30.898Z,65.06
2022-08-02T04:31:32.963Z,65.23
2022-08-02T04:33:36.592Z,65.18
2022-08-02T04:35:38.667Z,66.38
2022-08-02T04:38:05.599Z,65.53
2022-08-02T04:40:02.928Z,65.77
2022-08-02T04:42:05.015Z,65.58
2022-08-02T04:44:06.969Z,65.49
2022-08-02T04:46:08.770Z,65.55
2022-08-02T04:48:10.584Z,65.76
2022-08-02T04:50:12.404Z,65.46
2022-08-02T04:52:14.575Z,65.64
2022-08-02T04:54:16.819Z,65.83
2022-08-02T04:56:18.706Z,66.01
2022-08-02T05:00:42.734Z,65.07
2022-08-02T05:02:44.538Z,64.83
2022-08-02T05:04:46.793Z,64.65
2022-08-02T05:06:48.580Z,64.26
2022-08-02T05:08:52.744Z,64.03
2022-08-02T05:10:55.253Z,64.25
2022-08-02T05:12:57.136Z,63.89
2022-08-02T05:14:58.902Z,64.18
2022-08-02T05:17:00.881Z,63.87
2022-08-02T05:19:03.372Z,63.82
2022-08-02T05:21:05.296Z,63.16
2022-08-02T05:23:07.097Z,63.29
2022-08-02T05:25:09.845Z,63.55
2022-08-02T05:27:16.990Z,63.12
2022-08-02T05:29:23.780Z,62.88
2022-08-02T05:31:25.723Z,62.30
2022-08-02T05:33:27.584Z,62.31
2022-08-02T05:35:29.341Z,62.36
2022-08-02T05:37:33.010Z,62.27
2022-08-02T05:39:35.088Z,62.16
2022-08-02T05:41:38.920Z,61.63
2022-08-02T05:43:40.768Z,61.85
2022-08-02T05:45:42.531Z,61.65
2022-08-02T05:47:44.411Z,61.67
2022-08-02T05:49:46.596Z,61.00
2022-08-02T05:52:11.264Z,61.01
2022-08-02T05:54:23.497Z,60.86
2022-08-02T05:56:38.863Z,60.53
2022-08-02T05:58:53.558Z,60.76
2022-08-02T06:00:56.907Z,60.81
2022-08-02T06:03:07.558Z,60.89
2022-08-02T06:05:09.380Z,60.40
2022-08-02T06:07:12.747Z,60.22
2022-08-02T06:09:23.201Z,59.88
2022-08-02T06:11:41.820Z,59.52
2022-08-02T06:14:07.982Z,59.44
2022-08-02T06:16:14.186Z,59.48
2022-08-02T06:18:17.670Z,59.31
2022-08-02T06:20:20.597Z,58.90
2022-08-02T06:22:32.271Z,58.31
2022-08-02T06:24:37.993Z,58.35
2022-08-02T06:26:42.622Z,57.91
2022-08-02T06:28:46.666Z,57.96
2022-08-02T06:30:48.988Z,57.70
2022-08-02T06:32:54.057Z,57.61
2022-08-02T06:34:55.994Z,57.66
2022-08-02T06:37:09.134Z,57.33
2022-08-02T06:39:48.786Z,57.36
2022-08-02T06:41:52.422Z,57.58
2022-08-02T06:44:42.345Z,57.79
2022-08-02T06:46:54.389Z,57.26
2022-08-02T06:48:52.972Z,57.23
2022-08-02T06:50:54.848Z,56.78
2022-08-02T06:52:57.179Z,56.72
2022-08-02T06:55:01.458Z,56.84
2022-08-02T06:57:03.282Z,56.22
2022-08-02T06:59:06.176Z,55.93
2022-08-02T07:01:09.830Z,54.62
2022-08-02T07:03:11.893Z,54.08
2022-08-02T07:05:13.859Z,54.10
2022-08-02T07:07:15.758Z,52.14
2022-08-02T07:09:21.004Z,51.84
2022-08-02T07:11:24.107Z,50.68
2022-08-02T07:13:25.949Z,50.91
2022-08-02T07:15:27.960Z,49.64
2022-08-02T07:17:30.318Z,50.15
2022-08-02T07:19:37.533Z,49.13
2022-08-02T07:21:59.416Z,49.38
2022-08-02T07:24:01.863Z,50.04
2022-08-02T07:26:05.337Z,48.55
2022-08-02T07:28:16.840Z,48.27
2022-08-02T07:30:25.630Z,48.26
2022-08-02T07:32:30.866Z,47.50
2022-08-02T07:34:32.726Z,48.17
2022-08-02T07:36:34.683Z,47.15
2022-08-02T07:38:37.574Z,47.68
2022-08-02T07:40:39.553Z,46.61
2022-08-02T07:42:43.530Z,46.44
2022-08-02T07:44:49.127Z,45.21
2022-08-02T07:46:51.170Z,45.56
2022-08-02T07:48:54.859Z,45.35
2022-08-02T07:50:57.699Z,46.00
2022-08-02T07:52:59.564Z,45.48
2022-08-02T07:55:01.496Z,45.04
2022-08-02T07:57:03.751Z,45.80
2022-08-02T07:59:05.658Z,44.68
2022-08-02T08:01:07.848Z,45.18
2022-08-02T08:03:09.848Z,43.71
2022-08-02T08:05:12.256Z,41.47
2022-08-02T08:07:14.083Z,43.41
2022-08-02T08:09:15.952Z,43.36
2022-08-02T08:11:18.212Z,43.39
2022-08-02T08:13:19.988Z,43.06
2022-08-02T08:15:21.948Z,43.02
2022-08-02T08:17:23.748Z,43.92
2022-08-02T08:19:50.138Z,43.71
2022-08-02T08:21:47.940Z,43.72
2022-08-02T08:23:50.461Z,43.21
2022-08-02T08:25:52.248Z,42.07
2022-08-02T08:27:54.233Z,42.18
2022-08-02T08:29:56.133Z,41.77
2022-08-02T08:31:58.374Z,42.66
2022-08-02T08:34:01.196Z,41.16
2022-08-02T08:36:04.388Z,40.75
2022-08-02T08:38:07.903Z,41.46
2022-08-02T08:40:11.219Z,41.09
2022-08-02T08:42:13.361Z,41.23
2022-08-02T08:44:15.321Z,41.30
2022-08-02T08:46:29.480Z,40.28
2022-08-02T08:48:35.605Z,40.44
2022-08-02T08:50:43.181Z,40.56
2022-08-02T08:53:08.803Z,38.67
2022-08-02T08:55:16.125Z,39.19
2022-08-02T08:57:20.376Z,39.79
2022-08-02T08:59:22.249Z,40.12
2022-08-02T09:01:24.147Z,39.61
2022-08-02T09:03:26.028Z,38.62
2022-08-02T09:05:28.308Z,37.41
2022-08-02T09:07:30.272Z,37.88
2022-08-02T09:09:31.994Z,38.14
2022-08-02T09:11:33.889Z,37.65
2022-08-02T09:13:44.961Z,38.63
2022-08-02T09:15:54.232Z,37.22
2022-08-02T09:17:55.945Z,38.12
2022-08-02T09:20:08.586Z,37.19
2022-08-02T09:22:12.199Z,37.94
2022-08-02T09:24:22.439Z,36.48
2022-08-02T09:26:24.463Z,37.60
2022-08-02T09:28:28.846Z,37.67
2022-08-02T09:30:31.350Z,37.78
2022-08-02T09:32:45.660Z,37.03
2022-08-02T09:34:49.976Z,37.00
2022-08-02T09:36:54.770Z,36.86
2022-08-02T09:39:03.095Z,36.87
2022-08-02T09:41:21.881Z,37.20
2022-08-02T09:43:57.933Z,37.14
2022-08-02T09:46:10.974Z,35.08
2022-08-02T09:48:12.886Z,37.40
2022-08-02T09:50:15.141Z,36.61
2022-08-02T09:52:37.343Z,35.67
2022-08-02T09:54:45.458Z,37.10
2022-08-02T09:56:50.018Z,37.14
2022-08-02T09:58:55.155Z,36.56
2022-08-02T10:01:01.804Z,36.54
2022-08-02T10:03:21.475Z,35.30
2022-08-02T10:05:35.589Z,35.70
2022-08-02T10:07:44.832Z,36.42
2022-08-02T10:09:48.631Z,36.13
2022-08-02T10:11:52.036Z,36.15
2022-08-02T10:13:54.226Z,35.07
2022-08-02T10:15:59.525Z,35.37
2022-08-02T10:18:09.404Z,35.87
2022-08-02T10:20:23.952Z,35.32
2022-08-02T10:22:26.197Z,35.78
2022-08-02T10:24:30.531Z,35.37
2022-08-02T10:26:32.907Z,35.47
2022-08-02T10:28:36.330Z,34.98
2022-08-02T10:30:41.010Z,35.26
2022-08-02T10:32:46.196Z,34.90
2022-08-02T10:35:18.683Z,34.11
2022-08-02T10:37:26.987Z,34.63
2022-08-02T10:39:29.132Z,35.38
2022-08-02T10:41:49.641Z,34.19
2022-08-02T10:43:51.458Z,35.15
2022-08-02T10:45:53.243Z,35.17
2022-08-02T10:48:06.165Z,34.92
2022-08-02T10:50:09.075Z,35.41
2022-08-02T10:52:14.333Z,34.44
2022-08-02T10:54:21.654Z,34.92
2022-08-02T10:56:47.173Z,33.55
2022-08-02T10:59:29.454Z,33.59
2022-08-02T11:01:38.634Z,34.91
2022-08-02T11:03:41.669Z,34.14
2022-08-02T11:05:43.989Z,34.30
2022-08-02T11:07:49.636Z,33.00
2022-08-02T11:09:51.640Z,34.51
2022-08-02T11:12:07.917Z,33.12
2022-08-02T11:14:14.659Z,33.86
2022-08-02T11:16:16.491Z,34.72
2022-08-02T11:18:19.530Z,34.72
2022-08-02T11:20:23.523Z,34.94
2022-08-02T11:22:26.066Z,34.78
2022-08-02T11:24:34.871Z,33.51
2022-08-02T11:26:37.872Z,34.29
2022-08-02T11:28:39.772Z,34.50
2022-08-02T11:30:42.122Z,34.27
2022-08-02T11:32:44.077Z,34.08
2022-08-02T11:34:48.728Z,33.62
2022-08-02T11:36:52.210Z,31.82
2022-08-02T11:39:15.754Z,33.26
2022-08-02T11:41:47.035Z,32.77
2022-08-02T11:43:44.570Z,33.07
2022-08-02T11:45:47.040Z,32.98
2022-08-02T11:47:51.365Z,33.70
2022-08-02T11:50:03.629Z,33.62
2022-08-02T11:52:07.216Z,33.39
2022-08-02T11:54:09.420Z,33.76
2022-08-02T11:56:12.503Z,33.31
2022-08-02T11:58:14.369Z,32.32
2022-08-02T12:00:18.490Z,32.67
2022-08-02T12:02:22.733Z,32.56
2022-08-02T12:04:24.542Z,32.81
2022-08-02T12:06:31.338Z,32.81
2022-08-02T12:08:34.024Z,32.15
2022-08-02T12:10:36.009Z,31.94
2022-08-02T12:12:54.418Z,32.24
2022-08-02T12:14:56.237Z,32.46
2022-08-02T12:17:17.322Z,31.81
2022-08-02T12:19:19.681Z,32.40
2022-08-02T12:21:26.796Z,32.71
2022-08-02T12:23:28.911Z,32.54
2022-08-02T12:25:35.467Z,32.24
2022-08-02T12:27:41.395Z,32.06
2022-08-02T12:29:57.636Z,32.25
2022-08-02T12:32:02.091Z,32.07
2022-08-02T12:34:15.093Z,31.33
2022-08-02T12:36:19.962Z,32.43
2022-08-02T12:38:22.582Z,32.38
2022-08-02T12:40:32.667Z,31.94
2022-08-02T12:42:48.635Z,32.23
2022-08-02T12:45:01.285Z,32.28
2022-08-02T12:47:09.806Z,31.95
2022-08-02T12:49:18.370Z,32.07
2022-08-02T12:51:50.782Z,32.39
2022-08-02T12:54:13.060Z,32.49
2022-08-02T12:56:36.927Z,31.92
2022-08-02T12:58:51.740Z,31.88
2022-08-02T13:00:58.804Z,31.92
2022-08-02T13:03:00.998Z,32.00
2022-08-02T13:05:02.982Z,32.20
2022-08-02T13:07:05.366Z,31.98
2022-08-02T13:09:16.256Z,30.86
2022-08-02T13:11:18.219Z,31.69
2022-08-02T13:13:20.352Z,31.90
2022-08-02T13:15:50.405Z,32.24
2022-08-02T13:17:44.906Z,32.06
2022-08-02T13:19:51.020Z,31.58
2022-08-02T13:22:11.314Z,31.59
2022-08-02T13:24:23.279Z,32.01
2022-08-02T13:26:38.058Z,31.82
2022-08-02T13:28:42.746Z,31.69
2022-08-02T13:30:46.313Z,31.74
2022-08-02T13:32:48.240Z,31.23
2022-08-02T13:34:50.766Z,31.69
2022-08-02T13:36:52.556Z,31.77
2022-08-02T13:38:54.374Z,31.67
2022-08-02T13:41:12.740Z,31.86
2022-08-02T13:43:14.536Z,31.68
2022-08-02T13:45:16.510Z,31.24
2022-08-02T13:47:26.612Z,31.40
2022-08-02T13:49:51.032Z,30.48
2022-08-02T13:51:55.040Z,30.73
2022-08-02T13:53:56.817Z,31.12
2022-08-02T13:55:58.988Z,31.02
2022-08-02T13:58:00.927Z,31.26
2022-08-02T14:00:03.230Z,31.58
2022-08-02T14:02:07.302Z,30.99
2022-08-02T14:04:09.676Z,31.25
2022-08-02T14:06:11.612Z,30.73
2022-08-02T14:08:16.566Z,30.64
2022-08-02T14:10:19.175Z,30.91
2022-08-02T14:12:21.090Z,30.97
2022-08-02T14:14:22.964Z,31.00
2022-08-02T14:16:30.384Z,31.09
2022-08-02T14:18:35.247Z,30.77
2022-08-02T14:20:37.219Z,30.82
2022-08-02T14:22:39.169Z,31.12
2022-08-02T14:24:41.787Z,31.31
2022-08-02T14:26:44.584Z,31.60
2022-08-02T14:28:49.930Z,31.21
2022-08-02T14:30:53.209Z,30.96
2022-08-02T14:32:55.161Z,31.02
2022-08-02T14:34:56.946Z,30.96
2022-08-02T14:36:58.695Z,31.19
2022-08-02T14:39:01.983Z,31.04
2022-08-02T14:41:04.024Z,30.64
2022-08-02T14:43:05.926Z,30.22
2022-08-02T14:45:10.627Z,30.48
2022-08-02T14:47:13.420Z,30.50
2022-08-02T14:49:25.919Z,30.90
2022-08-02T14:51:31.692Z,31.15
2022-08-02T14:53:38.072Z,31.28
2022-08-02T14:55:51.627Z,31.25
2022-08-02T14:57:53.407Z,31.36
2022-08-02T14:59:55.277Z,31.13
2022-08-02T15:01:57.560Z,31.26
2022-08-02T15:03:59.530Z,31.05
2022-08-02T15:06:01.547Z,30.25
2022-08-02T15:08:03.498Z,30.39
2022-08-02T15:10:05.851Z,30.57
2022-08-02T15:12:09.171Z,31.04
2022-08-02T15:14:11.392Z,30.37
2022-08-02T15:16:13.350Z,30.61
2022-08-02T15:18:15.233Z,30.58
2022-08-02T15:20:25.640Z,30.94
2022-08-02T15:22:28.952Z,30.72
2022-08-02T15:24:31.289Z,30.78
2022-08-02T15:26:33.150Z,30.76
2022-08-02T15:28:35.532Z,30.56
2022-08-02T15:30:38.372Z,30.57
2022-08-02T15:32:40.175Z,30.17
2022-08-02T15:34:55.392Z,30.36
2022-08-02T15:36:57.231Z,30.03
2022-08-02T15:38:59.175Z,30.22
2022-08-02T15:41:01.660Z,30.39
2022-08-02T15:43:03.730Z,30.25
2022-08-02T15:45:06.042Z,30.69
2022-08-02T15:47:08.269Z,30.66
2022-08-02T15:49:10.194Z,30.85
2022-08-02T15:51:12.129Z,30.47
2022-08-02T15:53:13.937Z,31.26
2022-08-02T15:55:16.075Z,30.89
2022-08-02T15:57:17.967Z,30.92
2022-08-02T15:59:19.759Z,31.43
2022-08-02T16:01:21.852Z,31.57
2022-08-02T16:03:23.710Z,31.40
2022-08-02T16:05:25.598Z,31.28
2022-08-02T16:07:27.400Z,31.46
2022-08-02T16:09:29.328Z,30.81
2022-08-02T16:11:31.506Z,31.02
2022-08-02T16:13:54.488Z,30.84
2022-08-02T16:15:57.512Z,31.78
2022-08-02T16:17:59.626Z,31.69
2022-08-02T16:20:01.941Z,32.06
2022-08-02T16:22:03.764Z,32.47
2022-08-02T16:24:05.777Z,32.39
2022-08-02T16:26:07.681Z,32.63
2022-08-02T16:28:09.431Z,32.24
2022-08-02T16:30:12.100Z,32.48
2022-08-02T16:32:15.959Z,32.67
2022-08-02T16:34:18.176Z,33.20
2022-08-02T16:36:20.133Z,32.94
2022-08-02T16:38:22.252Z,33.05
2022-08-02T16:40:24.277Z,33.16
2022-08-02T16:42:26.048Z,33.51
2022-08-02T16:44:30.121Z,33.32
2022-08-02T16:46:32.356Z,33.54
2022-08-02T16:48:34.170Z,33.59
2022-08-02T16:50:36.412Z,33.46
2022-08-02T16:52:38.746Z,33.85
2022-08-02T16:54:41.485Z,33.83
2022-08-02T16:56:43.383Z,33.75
2022-08-02T16:58:45.208Z,34.14
2022-08-02T17:00:49.724Z,34.12
2022-08-02T17:02:52.167Z,34.23
2022-08-02T17:04:54.040Z,34.22
2022-08-02T17:06:55.771Z,34.46
2022-08-02T17:08:59.718Z,34.22
2022-08-02T17:11:03.211Z,34.16
2022-08-02T17:13:11.273Z,34.22
2022-08-02T17:16:07.539Z,34.66
2022-08-02T17:17:39.335Z,34.55
2022-08-02T17:19:43.711Z,34.68
2022-08-02T17:21:45.586Z,34.60
2022-08-02T17:24:08.356Z,34.31
2022-08-02T17:26:09.450Z,34.88
2022-08-02T17:28:11.369Z,34.83
2022-08-02T17:30:13.702Z,34.77
2022-08-02T17:32:18.200Z,34.80
2022-08-02T17:34:26.951Z,35.85
2022-08-02T17:36:28.989Z,35.37
2022-08-02T17:38:31.377Z,35.51
2022-08-02T17:40:33.109Z,35.94
2022-08-02T17:42:35.640Z,35.98
2022-08-02T17:44:38.389Z,35.58
2022-08-02T17:46:40.468Z,35.76
2022-08-02T17:49:00.964Z,36.37
2022-08-02T17:51:04.253Z,36.09
2022-08-02T17:53:06.061Z,36.37
2022-08-02T17:55:10.688Z,36.19
2022-08-02T17:57:12.966Z,36.54
2022-08-02T17:59:31.239Z,36.48
2022-08-02T18:01:52.446Z,36.84
2022-08-02T18:03:54.775Z,36.18
2022-08-02T18:05:56.538Z,36.36
2022-08-02T18:08:00.799Z,36.46
2022-08-02T18:10:03.287Z,36.47
2022-08-02T18:12:06.740Z,36.43
2022-08-02T18:14:08.510Z,36.76
2022-08-02T18:16:20.923Z,36.05
2022-08-02T18:18:30.115Z,35.83
2022-08-02T18:20:32.626Z,36.21
2022-08-02T18:22:34.475Z,36.27
2022-08-02T18:24:37.393Z,36.49
2022-08-02T18:26:43.509Z,36.21
2022-08-02T18:28:45.862Z,35.82
2022-08-02T18:30:48.263Z,35.80
2022-08-02T18:33:56.938Z,36.11
2022-08-02T18:35:12.692Z,36.08
2022-08-02T18:37:14.556Z,36.24
2022-08-02T18:39:19.578Z,36.11
2022-08-02T18:41:21.662Z,36.34
2022-08-02T18:43:25.432Z,36.41
2022-08-02T18:46:05.902Z,36.64
2022-08-02T18:47:51.434Z,36.38
2022-08-02T18:49:56.267Z,36.85
2022-08-02T18:51:58.351Z,36.58
2022-08-02T18:54:01.284Z,36.89
2022-08-02T18:56:05.210Z,37.01
2022-08-02T18:58:19.675Z,36.69
2022-08-02T19:00:25.588Z,37.24
2022-08-02T19:02:28.391Z,37.25
2022-08-02T19:04:31.306Z,37.37
2022-08-02T19:06:34.947Z,36.96
2022-08-02T19:08:36.817Z,37.91
2022-08-02T19:10:40.034Z,37.48
2022-08-02T19:12:51.666Z,37.51
2022-08-02T19:14:53.567Z,37.58
2022-08-02T19:16:57.964Z,37.76
2022-08-02T19:19:02.652Z,37.71
2022-08-02T19:21:07.338Z,38.06
2022-08-02T19:23:10.607Z,38.06
2022-08-02T19:25:17.817Z,38.00
2022-08-02T19:27:25.797Z,38.39
2022-08-02T19:29:42.920Z,38.48
2022-08-02T19:32:00.154Z,38.16
2022-08-02T19:34:07.230Z,38.85
2022-08-02T19:36:09.894Z,38.59
2022-08-02T19:38:13.725Z,38.65
2022-08-02T19:40:20.689Z,38.89
2022-08-02T19:42:25.076Z,38.61
2022-08-02T19:44:29.575Z,38.29
2022-08-02T19:46:31.660Z,38.61
2022-08-02T19:48:33.643Z,38.89
2022-08-02T19:50:35.486Z,39.13
2022-08-02T19:52:37.527Z,39.17
2022-08-02T19:54:54.926Z,39.11
2022-08-02T19:56:58.452Z,38.88
2022-08-02T19:59:00.940Z,39.57
2022-08-02T20:01:16.831Z,39.08
2022-08-02T20:03:19.696Z,39.63
2022-08-02T20:05:41.653Z,39.62
2022-08-02T20:07:54.344Z,39.80
2022-08-02T20:09:58.336Z,40.00
2022-08-02T20:12:00.186Z,39.57
2022-08-02T20:14:04.261Z,39.76
2022-08-02T20:16:06.266Z,40.08
2022-08-02T20:18:09.373Z,40.01
2022-08-02T20:20:12.365Z,40.17
2022-08-02T20:22:15.931Z,40.29
2022-08-02T20:24:18.255Z,40.46
2022-08-02T20:26:20.203Z,40.16
2022-08-02T20:28:23.957Z,40.68
2022-08-02T20:30:26.449Z,40.37
2022-08-02T20:32:28.250Z,40.96
2022-08-02T20:34:30.305Z,40.90
2022-08-02T20:36:32.175Z,40.97
2022-08-02T20:38:34.154Z,41.36
2022-08-02T20:40:36.126Z,40.91
2022-08-02T20:42:38.399Z,40.99
2022-08-02T20:44:40.913Z,41.43
2022-08-02T20:46:44.104Z,41.59
2022-08-02T20:48:45.912Z,41.32
2022-08-02T20:50:54.349Z,41.36
2022-08-02T20:52:56.211Z,41.86
2022-08-02T20:54:58.027Z,42.25
2022-08-02T20:56:59.763Z,42.29
2022-08-02T20:59:16.039Z,42.20
2022-08-02T21:01:18.123Z,42.44
2022-08-02T21:03:23.684Z,41.98
2022-08-02T21:05:43.234Z,41.70
2022-08-02T21:07:53.330Z,42.37
2022-08-02T21:09:55.553Z,42.12
2022-08-02T21:11:57.521Z,42.19
2022-08-02T21:14:07.773Z,42.45
2022-08-02T21:16:13.691Z,42.27
2022-08-02T21:18:21.496Z,42.72
2022-08-02T21:20:35.252Z,44.06
2022-08-02T21:22:37.249Z,43.85
2022-08-02T21:24:39.031Z,45.96
2022-08-02T21:26:40.890Z,47.83
2022-08-02T21:28:45.269Z,47.97
2022-08-02T21:30:47.175Z,46.71
2022-08-02T21:32:54.714Z,46.75
2022-08-02T21:34:58.848Z,46.09
2022-08-02T21:37:00.672Z,46.10
2022-08-02T21:39:12.326Z,45.37
2022-08-02T21:41:14.356Z,45.65
2022-08-02T21:43:21.512Z,45.75
2022-08-02T21:45:40.373Z,45.38
2022-08-02T21:47:55.729Z,45.45
2022-08-02T21:50:10.353Z,45.74
2022-08-02T21:52:16.530Z,46.08
2022-08-02T21:54:20.872Z,47.17
2022-08-02T21:56:23.850Z,46.83
2022-08-02T21:58:25.808Z,46.74
2022-08-02T22:00:29.501Z,46.59
2022-08-02T22:02:31.432Z,46.61
2022-08-02T22:04:33.268Z,46.69
2022-08-02T22:06:35.411Z,46.34
2022-08-02T22:08:38.290Z,46.81
2022-08-02T22:10:58.892Z,46.43
2022-08-02T22:13:01.661Z,45.87
2022-08-02T22:15:06.007Z,45.87
2022-08-02T22:17:13.739Z,46.05
2022-08-02T22:19:15.827Z,45.74
2022-08-02T22:21:18.072Z,45.92
2022-08-02T22:23:22.710Z,46.28
2022-08-02T22:25:40.965Z,46.37
2022-08-02T22:28:34.773Z,46.41
2022-08-02T22:30:05.319Z,46.14
2022-08-02T22:32:07.547Z,46.49
2022-08-02T22:34:11.668Z,46.08
2022-08-02T22:36:38.608Z,45.99
2022-08-02T22:38:46.454Z,46.60
2022-08-02T22:40:49.503Z,46.65
2022-08-02T22:42:51.252Z,46.42
2022-08-02T22:44:53.099Z,46.36
2022-08-02T22:46:55.026Z,46.38
2022-08-02T22:48:57.112Z,46.40
2022-08-02T22:50:59.129Z,46.51
2022-08-02T22:53:03.027Z,46.92
2022-08-02T22:55:05.444Z,47.58
2022-08-02T22:57:11.420Z,47.50
2022-08-02T22:59:21.072Z,46.96
2022-08-02T23:01:35.594Z,47.33
2022-08-02T23:03:39.240Z,46.90
2022-08-02T23:05:41.526Z,47.11
2022-08-02T23:07:43.420Z,47.39
2022-08-02T23:09:45.304Z,47.33
2022-08-02T23:11:47.062Z,47.34
2022-08-02T23:13:48.857Z,47.31
2022-08-02T23:16:09.231Z,47.94
2022-08-02T23:18:29.796Z,47.52
2022-08-02T23:20:31.717Z,47.49
2022-08-02T23:22:33.482Z,47.96
2022-08-02T23:24:35.510Z,47.58
2022-08-02T23:26:37.437Z,47.79
2022-08-02T23:28:39.299Z,48.17
2022-08-02T23:30:41.098Z,47.80
2022-08-02T23:32:42.903Z,48.03
2022-08-02T23:34:45.614Z,47.93
2022-08-02T23:36:47.430Z,48.12
2022-08-02T23:38:49.375Z,47.93
2022-08-02T23:40:51.261Z,48.31
2022-08-02T23:42:53.051Z,48.16
2022-08-02T23:44:55.338Z,48.06
2022-08-02T23:46:58.015Z,48.11
2022-08-02T23:48:59.980Z,48.24
2022-08-02T23:51:01.762Z,48.59
2022-08-02T23:53:03.967Z,48.35
2022-08-02T23:55:06.384Z,47.96
2022-08-02T23:57:20.157Z,48.85
2022-08-02T23:59:23.165Z,48.38
